02:04 MTB Moetz - Hatting - Silz - Crazy Eddie - Moetz
Ort Moetz Datum 17.05.2014 09:46:42
Kategorie MTB
Distanz 44,51 Kilometer Steigung 96,0 Meter Gefälle -87,0 Meter
Gesamt Zeit 02:08:35 Aktiv 02:03:46 Pause 00:04:49
Durchs. Tempo 21,6 km/h Tempo max. 28,7 km/h Tempo min. 4,7 km/h
Kalorien 0 Durchs. HF 102 BPM HF max. 114 BPM
Wetter 11 °C Overcast Min/Max: 9,0 °C/12,6 °C; Druck: 1021,3 mbar; Rel. Feuchte: 72,0%; Taupunkt: 4,8 °C; Windgeschwindigkeit: 1,4 km/h; Niederschlag: 0,0mm
Ausrüstung Specialized - Stumpjumper Comp
Specialized - BG S-Works MTB
Shimano - HG-XTR 7701
Schwalbe - Nobby Nic vorne
Schwalbe - Racing Ralph hinten
Notiz Moetz - Hatting - Silz - Crazy Eddie - Moetz ... trocken, leicht windig, ganz locker ... garmin connect
Splits
Distanz (km) Gesamt Zeit Split Zeit Split Tempo Split Tempo Höhenprofil (m)
1,00 00:03:19 00:03:19 00:03:19 18,1 -10,53
2,00 00:06:03 00:02:44 00:02:44 21,9 -0,11
3,00 00:08:44 00:02:41 00:02:42 22,3 -1,75
4,00 00:11:34 00:02:49 00:02:50 21,2 -1,89
5,00 00:14:17 00:02:42 00:02:43 22,1 -0,98
6,00 00:17:04 00:02:46 00:02:47 21,6 1,21
7,00 00:20:01 00:02:57 00:02:57 20,3 -1,90
8,00 00:22:49 00:02:48 00:02:48 21,4 -7,22
9,00 00:25:32 00:02:42 00:02:43 22,1 -1,99
10,00 00:28:20 00:02:48 00:02:49 21,4 -3,90
11,00 00:31:10 00:02:49 00:02:50 21,2 0,13
12,00 00:33:55 00:02:45 00:02:45 21,8 -6,23
13,00 00:36:38 00:02:43 00:02:43 22,1 2,43
14,00 00:39:18 00:02:39 00:02:40 22,6 -6,97
15,00 00:41:59 00:02:41 00:02:41 22,3 0,60
16,00 00:44:48 00:02:49 00:02:50 21,2 7,52
17,00 00:47:25 00:02:37 00:02:37 22,9 -5,44
18,00 00:50:04 00:02:38 00:02:38 22,7 -5,77
19,00 00:52:40 00:02:36 00:02:37 23,0 0,31
20,00 00:55:23 00:02:42 00:02:42 22,2 -3,56
21,00 00:58:04 00:02:40 00:02:41 22,4 3,51
22,00 01:00:54 00:02:49 00:02:50 21,2 -1,25
23,00 01:03:34 00:02:40 00:02:41 22,4 9,65
24,00 01:06:19 00:02:44 00:02:44 21,9 -1,36
25,00 01:09:05 00:02:46 00:02:46 21,7 -3,54
26,00 01:11:43 00:02:38 00:02:38 22,7 -0,02
27,00 01:14:23 00:02:39 00:02:39 22,6 6,64
28,00 01:17:02 00:02:39 00:02:39 22,6 -1,85
29,00 01:19:41 00:02:38 00:02:38 22,7 5,37
30,00 01:22:17 00:02:36 00:02:36 23,0 0,13
31,00 01:24:47 00:02:30 00:02:30 24,0 4,25
32,00 01:27:24 00:02:37 00:02:37 22,9 1,94
33,00 01:30:37 00:03:12 00:03:12 18,7 7,58
34,00 01:33:01 00:02:24 00:02:24 24,9 1,82
35,00 01:35:28 00:02:27 00:02:27 24,4 -2,48
36,00 01:37:56 00:02:27 00:02:28 24,3 1,66
37,00 01:40:34 00:02:37 00:02:37 22,9 1,70
38,00 01:43:00 00:02:26 00:02:26 24,6 2,26
39,00 01:45:45 00:02:44 00:02:45 21,8 0,38
40,00 01:48:17 00:02:32 00:02:32 23,6 3,22
41,00 01:50:48 00:02:30 00:02:31 23,8 5,40
42,00 01:53:12 00:02:23 00:02:24 25,0 5,47
43,00 01:55:54 00:02:42 00:02:42 22,2 2,70
44,00 01:58:17 00:02:22 00:02:22 25,3 -5,91
45,00 02:00:52 00:02:34 00:02:35 23,2 -1,90
45,95 02:03:46 00:02:53 00:03:03 19,6 0,46